Terminal Aerodrome Forecast
Issued by NWS Wichita, KS

Home | Current Version | Previous Version | Graphics & Text | Print | Product List | Glossary Off
Versions: 1 2 3 4 5 6 7 8 9 10 11 12 13 14 15 16 17 18 19 20 21

000
FTUS43 KICT 270719 AAB
TAFICT
TAF AMD
KICT 270719Z 2707/2806 04009KT P6SM FEW045 OVC060
     FM271500 07015G25KT P6SM VCSH SCT025 OVC050
     FM280000 03010KT P6SM BKN100=

USA.gov is the U.S. government's official web portal to all federal, state and local government web resources and services.